sensor_id;sensor_type;location;lat;lon;timestamp;temperature;humidity
29917;DHT22;16786;49.466;11.068;2024-03-25T00:01:47;5.10;99.90
29917;DHT22;16786;49.466;11.068;2024-03-25T00:04:12;5.10;99.90
29917;DHT22;16786;49.466;11.068;2024-03-25T00:06:38;5.10;99.90
29917;DHT22;16786;49.466;11.068;2024-03-25T00:09:05;5.10;99.90
29917;DHT22;16786;49.466;11.068;2024-03-25T00:11:33;5.10;99.90
29917;DHT22;16786;49.466;11.068;2024-03-25T00:13:59;5.10;99.90
29917;DHT22;16786;49.466;11.068;2024-03-25T00:16:25;5.20;99.90
29917;DHT22;16786;49.466;11.068;2024-03-25T00:18:51;5.10;99.90
29917;DHT22;16786;49.466;11.068;2024-03-25T00:21:17;5.10;99.90
29917;DHT22;16786;49.466;11.068;2024-03-25T00:23:43;5.10;99.90
29917;DHT22;16786;49.466;11.068;2024-03-25T00:26:09;5.10;99.90
29917;DHT22;16786;49.466;11.068;2024-03-25T00:28:35;5.20;99.90
29917;DHT22;16786;49.466;11.068;2024-03-25T00:31:01;5.20;99.90
29917;DHT22;16786;49.466;11.068;2024-03-25T00:33:27;5.20;99.90
29917;DHT22;16786;49.466;11.068;2024-03-25T00:35:53;5.30;99.90
29917;DHT22;16786;49.466;11.068;2024-03-25T00:38:19;5.30;99.90
29917;DHT22;16786;49.466;11.068;2024-03-25T00:40:45;5.30;99.90
29917;DHT22;16786;49.466;11.068;2024-03-25T00:43:11;5.30;99.90
29917;DHT22;16786;49.466;11.068;2024-03-25T00:45:38;5.20;99.90
29917;DHT22;16786;49.466;11.068;2024-03-25T00:48:04;5.20;99.90
29917;DHT22;16786;49.466;11.068;2024-03-25T00:50:30;5.20;99.90
29917;DHT22;16786;49.466;11.068;2024-03-25T00:52:56;5.20;99.90
29917;DHT22;16786;49.466;11.068;2024-03-25T00:55:22;5.20;99.90
29917;DHT22;16786;49.466;11.068;2024-03-25T00:57:48;5.20;99.90
29917;DHT22;16786;49.466;11.068;2024-03-25T01:00:14;5.30;99.90
29917;DHT22;16786;49.466;11.068;2024-03-25T01:02:42;5.30;99.90
29917;DHT22;16786;49.466;11.068;2024-03-25T01:05:08;5.30;99.90
29917;DHT22;16786;49.466;11.068;2024-03-25T01:07:35;5.30;99.90
29917;DHT22;16786;49.466;11.068;2024-03-25T01:10:00;5.30;99.90
29917;DHT22;16786;49.466;11.068;2024-03-25T01:12:26;5.30;99.90
29917;DHT22;16786;49.466;11.068;2024-03-25T01:14:53;5.30;99.90
29917;DHT22;16786;49.466;11.068;2024-03-25T01:17:19;5.30;99.90
29917;DHT22;16786;49.466;11.068;2024-03-25T01:19:45;5.30;99.90
29917;DHT22;16786;49.466;11.068;2024-03-25T01:22:11;5.30;99.90
29917;DHT22;16786;49.466;11.068;2024-03-25T01:24:37;5.30;99.90
29917;DHT22;16786;49.466;11.068;2024-03-25T01:27:03;5.30;99.90
29917;DHT22;16786;49.466;11.068;2024-03-25T01:29:29;5.30;99.90
29917;DHT22;16786;49.466;11.068;2024-03-25T01:31:55;5.30;99.90
29917;DHT22;16786;49.466;11.068;2024-03-25T01:34:23;5.30;99.90
29917;DHT22;16786;49.466;11.068;2024-03-25T01:36:49;5.40;99.90
29917;DHT22;16786;49.466;11.068;2024-03-25T01:39:15;5.30;99.90
29917;DHT22;16786;49.466;11.068;2024-03-25T01:41:41;5.40;99.90
29917;DHT22;16786;49.466;11.068;2024-03-25T01:44:07;5.40;99.90
29917;DHT22;16786;49.466;11.068;2024-03-25T01:46:33;5.30;99.90
29917;DHT22;16786;49.466;11.068;2024-03-25T01:48:58;5.30;99.90
29917;DHT22;16786;49.466;11.068;2024-03-25T01:51:25;5.40;99.90
29917;DHT22;16786;49.466;11.068;2024-03-25T01:53:53;5.30;99.90
29917;DHT22;16786;49.466;11.068;2024-03-25T01:56:21;5.40;99.90
29917;DHT22;16786;49.466;11.068;2024-03-25T01:58:49;5.30;99.90
29917;DHT22;16786;49.466;11.068;2024-03-25T02:01:15;5.30;99.90
29917;DHT22;16786;49.466;11.068;2024-03-25T02:03:45;5.30;99.90
29917;DHT22;16786;49.466;11.068;2024-03-25T02:06:16;5.40;99.90
29917;DHT22;16786;49.466;11.068;2024-03-25T02:08:43;5.40;99.90
29917;DHT22;16786;49.466;11.068;2024-03-25T02:11:10;5.40;99.90
29917;DHT22;16786;49.466;11.068;2024-03-25T02:13:38;5.40;99.90
29917;DHT22;16786;49.466;11.068;2024-03-25T02:16:05;5.40;99.90
29917;DHT22;16786;49.466;11.068;2024-03-25T02:18:31;5.30;99.90
29917;DHT22;16786;49.466;11.068;2024-03-25T02:20:58;5.30;99.90
29917;DHT22;16786;49.466;11.068;2024-03-25T02:23:25;5.30;99.90
29917;DHT22;16786;49.466;11.068;2024-03-25T02:25:54;5.40;99.90
29917;DHT22;16786;49.466;11.068;2024-03-25T02:28:20;5.40;99.90
29917;DHT22;16786;49.466;11.068;2024-03-25T02:30:47;5.40;99.90
29917;DHT22;16786;49.466;11.068;2024-03-25T02:33:13;5.40;99.90
29917;DHT22;16786;49.466;11.068;2024-03-25T02:35:41;5.40;99.90
29917;DHT22;16786;49.466;11.068;2024-03-25T02:38:08;5.50;99.90
29917;DHT22;16786;49.466;11.068;2024-03-25T02:40:34;5.40;99.90
29917;DHT22;16786;49.466;11.068;2024-03-25T02:43:01;5.40;99.90
29917;DHT22;16786;49.466;11.068;2024-03-25T02:45:27;5.40;99.90
29917;DHT22;16786;49.466;11.068;2024-03-25T02:47:53;5.40;99.90
29917;DHT22;16786;49.466;11.068;2024-03-25T02:50:19;5.40;99.90
29917;DHT22;16786;49.466;11.068;2024-03-25T02:52:45;5.40;99.90
29917;DHT22;16786;49.466;11.068;2024-03-25T02:55:11;5.40;99.90
29917;DHT22;16786;49.466;11.068;2024-03-25T02:57:37;5.40;99.90
29917;DHT22;16786;49.466;11.068;2024-03-25T03:00:03;5.40;99.90
29917;DHT22;16786;49.466;11.068;2024-03-25T03:02:30;5.30;99.90
29917;DHT22;16786;49.466;11.068;2024-03-25T03:04:56;5.30;99.90
29917;DHT22;16786;49.466;11.068;2024-03-25T03:07:22;5.30;99.90
29917;DHT22;16786;49.466;11.068;2024-03-25T03:09:48;5.30;99.90
29917;DHT22;16786;49.466;11.068;2024-03-25T03:12:14;5.30;99.90
29917;DHT22;16786;49.466;11.068;2024-03-25T03:14:40;5.30;99.90
29917;DHT22;16786;49.466;11.068;2024-03-25T03:17:06;5.20;99.90
29917;DHT22;16786;49.466;11.068;2024-03-25T03:19:32;5.30;99.90
29917;DHT22;16786;49.466;11.068;2024-03-25T03:21:58;5.30;99.90
29917;DHT22;16786;49.466;11.068;2024-03-25T03:24:24;5.30;99.90
29917;DHT22;16786;49.466;11.068;2024-03-25T03:26:50;5.20;99.90
29917;DHT22;16786;49.466;11.068;2024-03-25T03:29:16;5.20;99.90
29917;DHT22;16786;49.466;11.068;2024-03-25T03:31:43;5.10;99.90
29917;DHT22;16786;49.466;11.068;2024-03-25T03:34:09;5.10;99.90
29917;DHT22;16786;49.466;11.068;2024-03-25T03:36:36;5.10;99.90
29917;DHT22;16786;49.466;11.068;2024-03-25T03:39:02;5.00;99.90
29917;DHT22;16786;49.466;11.068;2024-03-25T03:41:29;5.00;99.90
29917;DHT22;16786;49.466;11.068;2024-03-25T03:43:55;5.00;99.90
29917;DHT22;16786;49.466;11.068;2024-03-25T03:46:21;5.00;99.90
29917;DHT22;16786;49.466;11.068;2024-03-25T03:48:47;4.90;99.90
29917;DHT22;16786;49.466;11.068;2024-03-25T03:51:13;4.90;99.90
29917;DHT22;16786;49.466;11.068;2024-03-25T03:53:40;4.90;99.90
29917;DHT22;16786;49.466;11.068;2024-03-25T03:56:06;4.80;99.90
29917;DHT22;16786;49.466;11.068;2024-03-25T03:58:32;4.80;99.90
29917;DHT22;16786;49.466;11.068;2024-03-25T04:00:58;4.80;99.90
29917;DHT22;16786;49.466;11.068;2024-03-25T04:03:25;4.70;99.90
29917;DHT22;16786;49.466;11.068;2024-03-25T04:05:51;4.70;99.90
29917;DHT22;16786;49.466;11.068;2024-03-25T04:08:17;4.60;99.90
29917;DHT22;16786;49.466;11.068;2024-03-25T04:10:44;4.60;99.90
29917;DHT22;16786;49.466;11.068;2024-03-25T04:13:11;4.60;99.90
29917;DHT22;16786;49.466;11.068;2024-03-25T04:15:41;4.50;99.90
29917;DHT22;16786;49.466;11.068;2024-03-25T04:18:08;4.50;99.90
29917;DHT22;16786;49.466;11.068;2024-03-25T04:20:41;4.50;99.90
29917;DHT22;16786;49.466;11.068;2024-03-25T04:23:07;4.50;99.90
29917;DHT22;16786;49.466;11.068;2024-03-25T04:25:34;4.40;99.90
29917;DHT22;16786;49.466;11.068;2024-03-25T04:28:04;4.50;99.90
29917;DHT22;16786;49.466;11.068;2024-03-25T04:30:30;4.50;99.90
29917;DHT22;16786;49.466;11.068;2024-03-25T04:32:56;4.40;99.90
29917;DHT22;16786;49.466;11.068;2024-03-25T04:35:22;4.40;99.90
29917;DHT22;16786;49.466;11.068;2024-03-25T04:37:48;4.40;99.90
29917;DHT22;16786;49.466;11.068;2024-03-25T04:40:14;4.40;99.90
29917;DHT22;16786;49.466;11.068;2024-03-25T04:42:41;4.40;99.90
29917;DHT22;16786;49.466;11.068;2024-03-25T04:45:07;4.40;99.90
29917;DHT22;16786;49.466;11.068;2024-03-25T04:47:33;4.40;99.90
29917;DHT22;16786;49.466;11.068;2024-03-25T04:49:59;4.50;99.90
29917;DHT22;16786;49.466;11.068;2024-03-25T04:52:25;4.50;99.90
29917;DHT22;16786;49.466;11.068;2024-03-25T04:54:51;4.50;99.90
29917;DHT22;16786;49.466;11.068;2024-03-25T04:57:17;4.50;99.90
29917;DHT22;16786;49.466;11.068;2024-03-25T04:59:44;4.50;99.90
29917;DHT22;16786;49.466;11.068;2024-03-25T05:02:10;4.50;99.90
29917;DHT22;16786;49.466;11.068;2024-03-25T05:04:36;4.50;99.90
29917;DHT22;16786;49.466;11.068;2024-03-25T05:07:02;4.50;99.90
29917;DHT22;16786;49.466;11.068;2024-03-25T05:09:28;4.50;99.90
29917;DHT22;16786;49.466;11.068;2024-03-25T05:11:54;4.50;99.90
29917;DHT22;16786;49.466;11.068;2024-03-25T05:14:20;4.50;99.90
29917;DHT22;16786;49.466;11.068;2024-03-25T05:16:46;4.50;99.90
29917;DHT22;16786;49.466;11.068;2024-03-25T05:19:12;4.60;99.90
29917;DHT22;16786;49.466;11.068;2024-03-25T05:21:38;4.50;99.90
29917;DHT22;16786;49.466;11.068;2024-03-25T05:24:04;4.50;99.90
29917;DHT22;16786;49.466;11.068;2024-03-25T05:26:30;4.50;99.90
29917;DHT22;16786;49.466;11.068;2024-03-25T05:28:57;4.40;99.90
29917;DHT22;16786;49.466;11.068;2024-03-25T05:31:23;4.40;99.90
29917;DHT22;16786;49.466;11.068;2024-03-25T05:33:50;4.40;99.90
29917;DHT22;16786;49.466;11.068;2024-03-25T05:36:16;4.30;99.90
29917;DHT22;16786;49.466;11.068;2024-03-25T05:38:42;4.30;99.90
29917;DHT22;16786;49.466;11.068;2024-03-25T05:41:09;4.30;99.90
29917;DHT22;16786;49.466;11.068;2024-03-25T05:43:37;4.30;99.90
29917;DHT22;16786;49.466;11.068;2024-03-25T05:46:03;4.30;99.90
29917;DHT22;16786;49.466;11.068;2024-03-25T05:48:29;4.30;99.90
29917;DHT22;16786;49.466;11.068;2024-03-25T05:51:01;4.40;99.90
29917;DHT22;16786;49.466;11.068;2024-03-25T05:53:28;4.40;99.90
29917;DHT22;16786;49.466;11.068;2024-03-25T05:55:54;4.40;99.90
29917;DHT22;16786;49.466;11.068;2024-03-25T05:58:21;4.40;99.90
29917;DHT22;16786;49.466;11.068;2024-03-25T06:00:48;4.40;99.90
29917;DHT22;16786;49.466;11.068;2024-03-25T06:03:14;4.40;99.90
29917;DHT22;16786;49.466;11.068;2024-03-25T06:05:40;4.40;99.90
29917;DHT22;16786;49.466;11.068;2024-03-25T06:08:07;4.30;99.90
29917;DHT22;16786;49.466;11.068;2024-03-25T06:10:37;4.30;99.90
29917;DHT22;16786;49.466;11.068;2024-03-25T06:13:03;4.30;99.90
29917;DHT22;16786;49.466;11.068;2024-03-25T06:15:29;4.40;99.90
29917;DHT22;16786;49.466;11.068;2024-03-25T06:17:55;4.40;99.90
29917;DHT22;16786;49.466;11.068;2024-03-25T06:20:21;4.30;99.90
29917;DHT22;16786;49.466;11.068;2024-03-25T06:22:47;4.30;99.90
29917;DHT22;16786;49.466;11.068;2024-03-25T06:25:13;4.20;99.90
29917;DHT22;16786;49.466;11.068;2024-03-25T06:27:39;4.30;99.90
29917;DHT22;16786;49.466;11.068;2024-03-25T06:30:06;4.40;99.90
29917;DHT22;16786;49.466;11.068;2024-03-25T06:32:51;4.40;99.90
29917;DHT22;16786;49.466;11.068;2024-03-25T06:35:35;4.50;99.90
29917;DHT22;16786;49.466;11.068;2024-03-25T06:38:01;4.50;99.90
29917;DHT22;16786;49.466;11.068;2024-03-25T06:40:27;4.70;99.90
29917;DHT22;16786;49.466;11.068;2024-03-25T06:42:53;4.80;99.90
29917;DHT22;16786;49.466;11.068;2024-03-25T06:45:19;4.90;99.90
29917;DHT22;16786;49.466;11.068;2024-03-25T06:47:45;5.10;99.90
29917;DHT22;16786;49.466;11.068;2024-03-25T06:50:13;5.10;99.90
29917;DHT22;16786;49.466;11.068;2024-03-25T06:52:39;5.10;99.90
29917;DHT22;16786;49.466;11.068;2024-03-25T06:55:06;5.10;99.90
29917;DHT22;16786;49.466;11.068;2024-03-25T06:57:32;5.20;99.90
29917;DHT22;16786;49.466;11.068;2024-03-25T06:59:58;5.20;99.90
29917;DHT22;16786;49.466;11.068;2024-03-25T07:02:24;5.40;99.90
29917;DHT22;16786;49.466;11.068;2024-03-25T07:04:50;5.60;99.90
29917;DHT22;16786;49.466;11.068;2024-03-25T07:07:18;5.70;99.90
29917;DHT22;16786;49.466;11.068;2024-03-25T07:09:44;5.80;99.90
29917;DHT22;16786;49.466;11.068;2024-03-25T07:12:09;5.80;99.90
29917;DHT22;16786;49.466;11.068;2024-03-25T07:14:35;5.90;99.90
29917;DHT22;16786;49.466;11.068;2024-03-25T07:17:01;5.70;99.90
29917;DHT22;16786;49.466;11.068;2024-03-25T07:19:27;5.70;99.90
29917;DHT22;16786;49.466;11.068;2024-03-25T07:21:53;5.80;99.90
29917;DHT22;16786;49.466;11.068;2024-03-25T07:24:19;5.80;99.90
29917;DHT22;16786;49.466;11.068;2024-03-25T07:26:45;5.90;99.90
29917;DHT22;16786;49.466;11.068;2024-03-25T07:29:12;5.80;99.90
29917;DHT22;16786;49.466;11.068;2024-03-25T07:31:38;5.90;99.90
29917;DHT22;16786;49.466;11.068;2024-03-25T07:34:04;5.90;99.90
29917;DHT22;16786;49.466;11.068;2024-03-25T07:36:30;6.10;99.90
29917;DHT22;16786;49.466;11.068;2024-03-25T07:38:59;6.10;99.90
29917;DHT22;16786;49.466;11.068;2024-03-25T07:41:25;6.30;99.90
29917;DHT22;16786;49.466;11.068;2024-03-25T07:43:51;6.40;99.90
29917;DHT22;16786;49.466;11.068;2024-03-25T07:46:17;6.30;99.90
29917;DHT22;16786;49.466;11.068;2024-03-25T07:48:43;6.20;99.90
29917;DHT22;16786;49.466;11.068;2024-03-25T07:51:10;6.10;99.90
29917;DHT22;16786;49.466;11.068;2024-03-25T07:53:36;6.10;99.90
29917;DHT22;16786;49.466;11.068;2024-03-25T07:56:02;6.10;99.90
29917;DHT22;16786;49.466;11.068;2024-03-25T07:58:30;6.10;99.90
29917;DHT22;16786;49.466;11.068;2024-03-25T08:00:56;6.20;99.90
29917;DHT22;16786;49.466;11.068;2024-03-25T08:03:22;6.10;99.90
29917;DHT22;16786;49.466;11.068;2024-03-25T08:05:50;6.20;99.90
29917;DHT22;16786;49.466;11.068;2024-03-25T08:08:16;6.30;99.90
29917;DHT22;16786;49.466;11.068;2024-03-25T08:10:42;6.50;99.90
29917;DHT22;16786;49.466;11.068;2024-03-25T08:13:08;6.70;99.90
29917;DHT22;16786;49.466;11.068;2024-03-25T08:15:34;7.00;99.90
29917;DHT22;16786;49.466;11.068;2024-03-25T08:18:00;7.30;99.90
29917;DHT22;16786;49.466;11.068;2024-03-25T08:20:26;7.20;99.90
29917;DHT22;16786;49.466;11.068;2024-03-25T08:22:52;7.40;99.90
29917;DHT22;16786;49.466;11.068;2024-03-25T08:25:18;7.40;99.90
29917;DHT22;16786;49.466;11.068;2024-03-25T08:27:44;7.50;99.90
29917;DHT22;16786;49.466;11.068;2024-03-25T08:30:10;7.50;99.90
29917;DHT22;16786;49.466;11.068;2024-03-25T08:32:36;7.50;99.90
29917;DHT22;16786;49.466;11.068;2024-03-25T08:35:02;7.60;99.90
29917;DHT22;16786;49.466;11.068;2024-03-25T08:37:28;7.40;99.90
29917;DHT22;16786;49.466;11.068;2024-03-25T08:39:54;7.30;99.90
29917;DHT22;16786;49.466;11.068;2024-03-25T08:42:20;7.40;99.90
29917;DHT22;16786;49.466;11.068;2024-03-25T08:44:47;7.40;99.90
29917;DHT22;16786;49.466;11.068;2024-03-25T08:47:13;7.60;99.90
29917;DHT22;16786;49.466;11.068;2024-03-25T08:49:39;7.80;99.90
29917;DHT22;16786;49.466;11.068;2024-03-25T08:52:05;7.90;99.90
29917;DHT22;16786;49.466;11.068;2024-03-25T08:54:31;8.00;99.90
29917;DHT22;16786;49.466;11.068;2024-03-25T08:56:57;7.90;99.90
29917;DHT22;16786;49.466;11.068;2024-03-25T08:59:23;7.90;99.90
29917;DHT22;16786;49.466;11.068;2024-03-25T09:01:49;8.20;99.90
29917;DHT22;16786;49.466;11.068;2024-03-25T09:04:15;8.30;99.90
29917;DHT22;16786;49.466;11.068;2024-03-25T09:06:41;8.40;99.90
29917;DHT22;16786;49.466;11.068;2024-03-25T09:09:07;8.20;99.90
29917;DHT22;16786;49.466;11.068;2024-03-25T09:11:52;8.10;99.90
29917;DHT22;16786;49.466;11.068;2024-03-25T09:14:18;7.90;99.90
29917;DHT22;16786;49.466;11.068;2024-03-25T09:16:43;7.70;99.90
29917;DHT22;16786;49.466;11.068;2024-03-25T09:19:09;7.50;99.90
29917;DHT22;16786;49.466;11.068;2024-03-25T09:21:35;7.70;99.90
29917;DHT22;16786;49.466;11.068;2024-03-25T09:24:01;7.90;99.90
29917;DHT22;16786;49.466;11.068;2024-03-25T09:26:27;8.30;99.90
29917;DHT22;16786;49.466;11.068;2024-03-25T09:28:53;8.50;99.90
29917;DHT22;16786;49.466;11.068;2024-03-25T09:31:19;8.70;99.90
29917;DHT22;16786;49.466;11.068;2024-03-25T09:33:45;8.80;99.90
29917;DHT22;16786;49.466;11.068;2024-03-25T09:36:11;9.30;99.90
29917;DHT22;16786;49.466;11.068;2024-03-25T09:38:37;9.60;99.90
29917;DHT22;16786;49.466;11.068;2024-03-25T09:41:03;9.60;99.90
29917;DHT22;16786;49.466;11.068;2024-03-25T09:43:42;9.50;99.90
29917;DHT22;16786;49.466;11.068;2024-03-25T09:46:09;9.60;99.90
29917;DHT22;16786;49.466;11.068;2024-03-25T09:48:37;9.50;99.90
29917;DHT22;16786;49.466;11.068;2024-03-25T09:51:04;9.40;99.90
29917;DHT22;16786;49.466;11.068;2024-03-25T09:53:30;9.40;99.90
29917;DHT22;16786;49.466;11.068;2024-03-25T09:55:57;9.30;99.90
29917;DHT22;16786;49.466;11.068;2024-03-25T09:58:25;9.50;99.90
29917;DHT22;16786;49.466;11.068;2024-03-25T10:00:52;9.40;99.90
29917;DHT22;16786;49.466;11.068;2024-03-25T10:03:18;9.40;99.90
29917;DHT22;16786;49.466;11.068;2024-03-25T10:05:44;9.60;99.90
29917;DHT22;16786;49.466;11.068;2024-03-25T10:08:10;9.80;99.90
29917;DHT22;16786;49.466;11.068;2024-03-25T10:10:36;9.90;99.90
29917;DHT22;16786;49.466;11.068;2024-03-25T10:13:06;10.50;99.90
29917;DHT22;16786;49.466;11.068;2024-03-25T10:15:32;10.60;99.90
29917;DHT22;16786;49.466;11.068;2024-03-25T10:17:58;10.50;99.90
29917;DHT22;16786;49.466;11.068;2024-03-25T10:20:24;10.70;99.90
29917;DHT22;16786;49.466;11.068;2024-03-25T10:22:51;10.70;99.90
29917;DHT22;16786;49.466;11.068;2024-03-25T10:25:28;10.70;99.90
29917;DHT22;16786;49.466;11.068;2024-03-25T10:27:58;10.50;99.90
29917;DHT22;16786;49.466;11.068;2024-03-25T10:30:26;10.50;99.90
29917;DHT22;16786;49.466;11.068;2024-03-25T10:33:03;10.70;99.90
29917;DHT22;16786;49.466;11.068;2024-03-25T10:35:31;10.60;99.90
29917;DHT22;16786;49.466;11.068;2024-03-25T10:38:02;10.30;99.90
29917;DHT22;16786;49.466;11.068;2024-03-25T10:40:32;10.20;99.90
29917;DHT22;16786;49.466;11.068;2024-03-25T10:43:05;10.30;99.90
29917;DHT22;16786;49.466;11.068;2024-03-25T10:45:37;10.70;99.90
29917;DHT22;16786;49.466;11.068;2024-03-25T10:50:55;10.70;99.90
29917;DHT22;16786;49.466;11.068;2024-03-25T10:53:21;10.70;99.90
29917;DHT22;16786;49.466;11.068;2024-03-25T10:55:54;10.70;99.90
29917;DHT22;16786;49.466;11.068;2024-03-25T10:58:21;11.00;99.90
29917;DHT22;16786;49.466;11.068;2024-03-25T11:00:52;11.30;99.90
29917;DHT22;16786;49.466;11.068;2024-03-25T11:03:23;11.40;99.90
29917;DHT22;16786;49.466;11.068;2024-03-25T11:05:51;11.60;99.90
29917;DHT22;16786;49.466;11.068;2024-03-25T11:08:17;12.10;99.90
29917;DHT22;16786;49.466;11.068;2024-03-25T11:10:44;12.40;99.90
29917;DHT22;16786;49.466;11.068;2024-03-25T11:13:13;12.50;99.90
29917;DHT22;16786;49.466;11.068;2024-03-25T11:15:44;12.10;99.90
29917;DHT22;16786;49.466;11.068;2024-03-25T11:18:14;12.10;99.90
29917;DHT22;16786;49.466;11.068;2024-03-25T11:20:43;12.70;99.90
29917;DHT22;16786;49.466;11.068;2024-03-25T11:23:10;12.70;99.90
29917;DHT22;16786;49.466;11.068;2024-03-25T11:25:40;12.60;99.90
29917;DHT22;16786;49.466;11.068;2024-03-25T11:28:10;12.80;99.90
29917;DHT22;16786;49.466;11.068;2024-03-25T11:30:36;13.10;99.90
29917;DHT22;16786;49.466;11.068;2024-03-25T11:33:03;13.60;99.90
29917;DHT22;16786;49.466;11.068;2024-03-25T11:35:38;13.70;99.90
29917;DHT22;16786;49.466;11.068;2024-03-25T11:38:04;13.80;99.90
29917;DHT22;16786;49.466;11.068;2024-03-25T11:40:30;14.00;99.90
29917;DHT22;16786;49.466;11.068;2024-03-25T11:42:56;14.10;99.90
29917;DHT22;16786;49.466;11.068;2024-03-25T11:45:22;14.20;99.90
29917;DHT22;16786;49.466;11.068;2024-03-25T11:47:50;14.40;99.90
29917;DHT22;16786;49.466;11.068;2024-03-25T11:50:17;14.90;99.90
29917;DHT22;16786;49.466;11.068;2024-03-25T11:52:44;15.10;99.90
29917;DHT22;16786;49.466;11.068;2024-03-25T11:55:11;14.90;99.90
29917;DHT22;16786;49.466;11.068;2024-03-25T11:57:38;14.70;98.90
29917;DHT22;16786;49.466;11.068;2024-03-25T12:00:05;15.00;97.80
29917;DHT22;16786;49.466;11.068;2024-03-25T12:02:45;15.40;97.50
29917;DHT22;16786;49.466;11.068;2024-03-25T12:05:17;15.30;97.00
29917;DHT22;16786;49.466;11.068;2024-03-25T12:07:43;15.90;94.60
29917;DHT22;16786;49.466;11.068;2024-03-25T12:10:09;15.50;94.40
29917;DHT22;16786;49.466;11.068;2024-03-25T12:12:55;15.70;91.20
29917;DHT22;16786;49.466;11.068;2024-03-25T12:15:21;15.70;89.90
29917;DHT22;16786;49.466;11.068;2024-03-25T12:17:48;16.00;90.80
29917;DHT22;16786;49.466;11.068;2024-03-25T12:20:16;16.00;90.20
29917;DHT22;16786;49.466;11.068;2024-03-25T12:22:43;16.60;88.40
29917;DHT22;16786;49.466;11.068;2024-03-25T12:25:09;16.80;83.90
29917;DHT22;16786;49.466;11.068;2024-03-25T12:27:37;17.20;81.80
29917;DHT22;16786;49.466;11.068;2024-03-25T12:30:06;16.80;80.80
29917;DHT22;16786;49.466;11.068;2024-03-25T12:32:40;16.40;78.80
29917;DHT22;16786;49.466;11.068;2024-03-25T12:35:17;16.20;80.20
29917;DHT22;16786;49.466;11.068;2024-03-25T12:37:46;16.20;80.10
29917;DHT22;16786;49.466;11.068;2024-03-25T12:40:24;16.20;81.70
29917;DHT22;16786;49.466;11.068;2024-03-25T12:42:54;16.90;76.40
29917;DHT22;16786;49.466;11.068;2024-03-25T12:45:21;17.30;84.30
29917;DHT22;16786;49.466;11.068;2024-03-25T12:47:52;17.90;77.40
29917;DHT22;16786;49.466;11.068;2024-03-25T12:50:18;17.50;75.10
29917;DHT22;16786;49.466;11.068;2024-03-25T12:52:44;17.60;73.70
29917;DHT22;16786;49.466;11.068;2024-03-25T12:55:10;18.00;70.50
29917;DHT22;16786;49.466;11.068;2024-03-25T12:57:36;18.20;69.80
29917;DHT22;16786;49.466;11.068;2024-03-25T13:00:03;18.50;68.00
29917;DHT22;16786;49.466;11.068;2024-03-25T13:02:33;18.10;67.30
29917;DHT22;16786;49.466;11.068;2024-03-25T13:04:59;18.90;66.70
29917;DHT22;16786;49.466;11.068;2024-03-25T13:07:25;19.50;69.90
29917;DHT22;16786;49.466;11.068;2024-03-25T13:09:51;21.20;65.90
29917;DHT22;16786;49.466;11.068;2024-03-25T13:12:17;22.00;60.60
29917;DHT22;16786;49.466;11.068;2024-03-25T13:14:43;21.90;59.10
29917;DHT22;16786;49.466;11.068;2024-03-25T13:17:09;22.50;57.70
29917;DHT22;16786;49.466;11.068;2024-03-25T13:19:35;23.80;56.80
29917;DHT22;16786;49.466;11.068;2024-03-25T13:22:01;23.80;54.60
29917;DHT22;16786;49.466;11.068;2024-03-25T13:24:27;24.70;53.20
29917;DHT22;16786;49.466;11.068;2024-03-25T13:26:53;26.30;52.20
29917;DHT22;16786;49.466;11.068;2024-03-25T13:29:19;28.00;50.40
29917;DHT22;16786;49.466;11.068;2024-03-25T13:31:45;28.70;46.90
29917;DHT22;16786;49.466;11.068;2024-03-25T13:34:11;27.50;42.90
29917;DHT22;16786;49.466;11.068;2024-03-25T13:36:37;28.00;45.30
29917;DHT22;16786;49.466;11.068;2024-03-25T13:39:03;28.90;44.20
29917;DHT22;16786;49.466;11.068;2024-03-25T13:41:29;29.80;42.60
29917;DHT22;16786;49.466;11.068;2024-03-25T13:43:55;29.70;40.30
29917;DHT22;16786;49.466;11.068;2024-03-25T13:46:21;30.40;39.60
29917;DHT22;16786;49.466;11.068;2024-03-25T13:48:47;30.10;37.80
29917;DHT22;16786;49.466;11.068;2024-03-25T13:51:13;30.80;38.60
29917;DHT22;16786;49.466;11.068;2024-03-25T13:53:40;31.10;38.00
29917;DHT22;16786;49.466;11.068;2024-03-25T13:56:06;31.50;39.10
29917;DHT22;16786;49.466;11.068;2024-03-25T13:58:32;31.20;36.90
29917;DHT22;16786;49.466;11.068;2024-03-25T14:00:58;32.00;37.80
29917;DHT22;16786;49.466;11.068;2024-03-25T14:03:24;31.20;34.80
29917;DHT22;16786;49.466;11.068;2024-03-25T14:05:50;28.80;35.80
29917;DHT22;16786;49.466;11.068;2024-03-25T14:08:16;28.20;35.90
29917;DHT22;16786;49.466;11.068;2024-03-25T14:10:45;28.00;36.30
29917;DHT22;16786;49.466;11.068;2024-03-25T14:13:11;28.30;36.90
29917;DHT22;16786;49.466;11.068;2024-03-25T14:15:37;28.60;35.80
29917;DHT22;16786;49.466;11.068;2024-03-25T14:18:03;28.60;37.60
29917;DHT22;16786;49.466;11.068;2024-03-25T14:20:30;28.30;36.50
29917;DHT22;16786;49.466;11.068;2024-03-25T14:22:56;29.60;37.90
29917;DHT22;16786;49.466;11.068;2024-03-25T14:25:22;30.10;34.10
29917;DHT22;16786;49.466;11.068;2024-03-25T14:27:48;29.00;33.70
29917;DHT22;16786;49.466;11.068;2024-03-25T14:30:14;29.30;36.00
29917;DHT22;16786;49.466;11.068;2024-03-25T14:32:40;29.80;35.30
29917;DHT22;16786;49.466;11.068;2024-03-25T14:35:07;29.50;34.80
29917;DHT22;16786;49.466;11.068;2024-03-25T14:37:33;30.70;35.50
29917;DHT22;16786;49.466;11.068;2024-03-25T14:39:59;31.00;34.20
29917;DHT22;16786;49.466;11.068;2024-03-25T14:42:25;30.90;32.80
29917;DHT22;16786;49.466;11.068;2024-03-25T14:44:51;31.60;33.90
29917;DHT22;16786;49.466;11.068;2024-03-25T14:47:17;31.80;33.30
29917;DHT22;16786;49.466;11.068;2024-03-25T14:49:43;31.40;33.50
29917;DHT22;16786;49.466;11.068;2024-03-25T14:52:09;31.80;33.30
29917;DHT22;16786;49.466;11.068;2024-03-25T14:54:38;31.50;32.50
29917;DHT22;16786;49.466;11.068;2024-03-25T14:57:04;31.90;32.10
29917;DHT22;16786;49.466;11.068;2024-03-25T14:59:30;30.80;33.80
29917;DHT22;16786;49.466;11.068;2024-03-25T15:01:59;31.10;33.10
29917;DHT22;16786;49.466;11.068;2024-03-25T15:04:26;33.40;32.50
29917;DHT22;16786;49.466;11.068;2024-03-25T15:06:53;32.60;32.80
29917;DHT22;16786;49.466;11.068;2024-03-25T15:09:19;32.30;32.80
29917;DHT22;16786;49.466;11.068;2024-03-25T15:11:45;33.30;31.90
29917;DHT22;16786;49.466;11.068;2024-03-25T15:14:11;32.60;33.30
29917;DHT22;16786;49.466;11.068;2024-03-25T15:16:37;34.40;30.90
29917;DHT22;16786;49.466;11.068;2024-03-25T15:19:03;33.20;32.00
29917;DHT22;16786;49.466;11.068;2024-03-25T15:21:29;33.50;31.50
29917;DHT22;16786;49.466;11.068;2024-03-25T15:23:55;35.00;30.50
29917;DHT22;16786;49.466;11.068;2024-03-25T15:26:23;34.20;31.20